sensor_id;sensor_type;location;lat;lon;timestamp;temperature;humidity
43089;DHT22;28709;52.030;5.652;2023-04-03T00:01:15;3.40;99.90
43089;DHT22;28709;52.030;5.652;2023-04-03T00:03:41;3.40;99.90
43089;DHT22;28709;52.030;5.652;2023-04-03T00:06:10;3.30;99.90
43089;DHT22;28709;52.030;5.652;2023-04-03T00:08:37;3.30;99.90
43089;DHT22;28709;52.030;5.652;2023-04-03T00:11:03;3.30;99.90
43089;DHT22;28709;52.030;5.652;2023-04-03T00:13:29;3.30;99.90
43089;DHT22;28709;52.030;5.652;2023-04-03T00:15:55;3.30;99.90
43089;DHT22;28709;52.030;5.652;2023-04-03T00:18:21;3.20;99.90
43089;DHT22;28709;52.030;5.652;2023-04-03T00:20:47;3.20;99.90
43089;DHT22;28709;52.030;5.652;2023-04-03T00:23:13;3.20;99.90
43089;DHT22;28709;52.030;5.652;2023-04-03T00:25:39;3.20;99.90
43089;DHT22;28709;52.030;5.652;2023-04-03T00:28:05;3.20;99.90
43089;DHT22;28709;52.030;5.652;2023-04-03T00:30:31;3.20;99.90
43089;DHT22;28709;52.030;5.652;2023-04-03T00:32:57;3.20;99.90
43089;DHT22;28709;52.030;5.652;2023-04-03T00:35:23;3.10;99.90
43089;DHT22;28709;52.030;5.652;2023-04-03T00:37:54;3.10;99.90
43089;DHT22;28709;52.030;5.652;2023-04-03T00:40:22;3.10;99.90
43089;DHT22;28709;52.030;5.652;2023-04-03T00:42:50;3.10;99.90
43089;DHT22;28709;52.030;5.652;2023-04-03T00:45:49;3.10;99.90
43089;DHT22;28709;52.030;5.652;2023-04-03T00:48:28;3.10;99.90
43089;DHT22;28709;52.030;5.652;2023-04-03T00:50:55;3.10;99.90
43089;DHT22;28709;52.030;5.652;2023-04-03T00:53:25;3.00;99.90
43089;DHT22;28709;52.030;5.652;2023-04-03T00:55:52;3.00;99.90
43089;DHT22;28709;52.030;5.652;2023-04-03T00:58:21;3.00;99.90
43089;DHT22;28709;52.030;5.652;2023-04-03T01:00:50;3.00;99.90
43089;DHT22;28709;52.030;5.652;2023-04-03T01:03:21;3.00;99.90
43089;DHT22;28709;52.030;5.652;2023-04-03T01:05:47;2.90;99.90
43089;DHT22;28709;52.030;5.652;2023-04-03T01:08:12;2.90;99.90
43089;DHT22;28709;52.030;5.652;2023-04-03T01:10:38;3.00;99.90
43089;DHT22;28709;52.030;5.652;2023-04-03T01:13:19;2.90;99.90
43089;DHT22;28709;52.030;5.652;2023-04-03T01:15:45;2.90;99.90
43089;DHT22;28709;52.030;5.652;2023-04-03T01:18:11;2.90;99.90
43089;DHT22;28709;52.030;5.652;2023-04-03T01:26:11;2.80;99.90
43089;DHT22;28709;52.030;5.652;2023-04-03T01:28:38;2.80;99.90
43089;DHT22;28709;52.030;5.652;2023-04-03T01:31:41;2.80;99.90
43089;DHT22;28709;52.030;5.652;2023-04-03T01:34:08;2.80;99.90
43089;DHT22;28709;52.030;5.652;2023-04-03T01:36:34;2.80;99.90
43089;DHT22;28709;52.030;5.652;2023-04-03T01:39:00;2.80;99.90
43089;DHT22;28709;52.030;5.652;2023-04-03T01:41:26;2.70;99.90
43089;DHT22;28709;52.030;5.652;2023-04-03T01:43:52;2.70;99.90
43089;DHT22;28709;52.030;5.652;2023-04-03T01:46:18;2.70;99.90
43089;DHT22;28709;52.030;5.652;2023-04-03T01:48:45;2.70;99.90
43089;DHT22;28709;52.030;5.652;2023-04-03T01:51:10;2.60;99.90
43089;DHT22;28709;52.030;5.652;2023-04-03T01:53:36;2.60;99.90
43089;DHT22;28709;52.030;5.652;2023-04-03T01:56:02;2.60;99.90
43089;DHT22;28709;52.030;5.652;2023-04-03T01:58:28;2.60;99.90
43089;DHT22;28709;52.030;5.652;2023-04-03T02:00:54;2.60;99.90
43089;DHT22;28709;52.030;5.652;2023-04-03T02:03:20;2.60;99.90
43089;DHT22;28709;52.030;5.652;2023-04-03T02:05:45;2.50;99.90
43089;DHT22;28709;52.030;5.652;2023-04-03T02:08:12;2.50;99.90
43089;DHT22;28709;52.030;5.652;2023-04-03T02:10:38;2.50;99.90
43089;DHT22;28709;52.030;5.652;2023-04-03T02:13:04;2.50;99.90
43089;DHT22;28709;52.030;5.652;2023-04-03T02:15:30;2.50;99.90
43089;DHT22;28709;52.030;5.652;2023-04-03T02:17:56;2.50;99.90
43089;DHT22;28709;52.030;5.652;2023-04-03T02:20:22;2.50;99.90
43089;DHT22;28709;52.030;5.652;2023-04-03T02:22:47;2.50;99.90
43089;DHT22;28709;52.030;5.652;2023-04-03T02:25:13;2.40;99.90
43089;DHT22;28709;52.030;5.652;2023-04-03T02:27:39;2.40;99.90
43089;DHT22;28709;52.030;5.652;2023-04-03T02:30:05;2.40;99.90
43089;DHT22;28709;52.030;5.652;2023-04-03T02:32:31;2.30;99.90
43089;DHT22;28709;52.030;5.652;2023-04-03T02:34:57;2.30;99.90
43089;DHT22;28709;52.030;5.652;2023-04-03T02:37:23;2.30;99.90
43089;DHT22;28709;52.030;5.652;2023-04-03T02:39:49;2.30;99.90
43089;DHT22;28709;52.030;5.652;2023-04-03T02:42:15;2.20;99.90
43089;DHT22;28709;52.030;5.652;2023-04-03T02:44:40;2.20;99.90
43089;DHT22;28709;52.030;5.652;2023-04-03T02:47:06;2.20;99.90
43089;DHT22;28709;52.030;5.652;2023-04-03T02:49:31;2.20;99.90
43089;DHT22;28709;52.030;5.652;2023-04-03T02:51:57;2.10;99.90
43089;DHT22;28709;52.030;5.652;2023-04-03T02:54:23;2.10;99.90
43089;DHT22;28709;52.030;5.652;2023-04-03T02:56:49;2.00;99.90
43089;DHT22;28709;52.030;5.652;2023-04-03T02:59:16;2.00;99.90
43089;DHT22;28709;52.030;5.652;2023-04-03T03:01:41;2.00;99.90
43089;DHT22;28709;52.030;5.652;2023-04-03T03:04:07;2.00;99.90
43089;DHT22;28709;52.030;5.652;2023-04-03T03:06:33;2.00;99.90
43089;DHT22;28709;52.030;5.652;2023-04-03T03:08:58;2.00;99.90
43089;DHT22;28709;52.030;5.652;2023-04-03T03:11:24;1.90;99.90
43089;DHT22;28709;52.030;5.652;2023-04-03T03:13:50;1.90;99.90
43089;DHT22;28709;52.030;5.652;2023-04-03T03:16:16;1.90;99.90
43089;DHT22;28709;52.030;5.652;2023-04-03T03:18:42;1.90;99.90
43089;DHT22;28709;52.030;5.652;2023-04-03T03:21:09;1.80;99.90
43089;DHT22;28709;52.030;5.652;2023-04-03T03:23:35;1.80;99.90
43089;DHT22;28709;52.030;5.652;2023-04-03T03:26:07;1.80;99.90
43089;DHT22;28709;52.030;5.652;2023-04-03T03:28:34;1.80;99.90
43089;DHT22;28709;52.030;5.652;2023-04-03T03:31:00;1.80;99.90
43089;DHT22;28709;52.030;5.652;2023-04-03T03:33:26;1.80;99.90
43089;DHT22;28709;52.030;5.652;2023-04-03T03:35:53;1.80;99.90
43089;DHT22;28709;52.030;5.652;2023-04-03T03:38:18;1.70;99.90
43089;DHT22;28709;52.030;5.652;2023-04-03T03:40:44;1.70;99.90
43089;DHT22;28709;52.030;5.652;2023-04-03T03:43:10;1.70;99.90
43089;DHT22;28709;52.030;5.652;2023-04-03T03:45:35;1.70;99.90
43089;DHT22;28709;52.030;5.652;2023-04-03T03:48:02;1.70;99.90
43089;DHT22;28709;52.030;5.652;2023-04-03T03:50:27;1.70;99.90
43089;DHT22;28709;52.030;5.652;2023-04-03T03:52:53;1.70;99.90
43089;DHT22;28709;52.030;5.652;2023-04-03T03:55:19;1.60;99.90
43089;DHT22;28709;52.030;5.652;2023-04-03T03:57:45;1.60;99.90
43089;DHT22;28709;52.030;5.652;2023-04-03T04:00:11;1.60;99.90
43089;DHT22;28709;52.030;5.652;2023-04-03T04:02:37;1.60;99.90
43089;DHT22;28709;52.030;5.652;2023-04-03T04:05:03;1.60;99.90
43089;DHT22;28709;52.030;5.652;2023-04-03T04:07:28;1.60;99.90
43089;DHT22;28709;52.030;5.652;2023-04-03T04:09:54;1.60;99.90
43089;DHT22;28709;52.030;5.652;2023-04-03T04:12:20;1.60;99.90
43089;DHT22;28709;52.030;5.652;2023-04-03T04:14:46;1.60;99.90
43089;DHT22;28709;52.030;5.652;2023-04-03T04:17:15;1.50;99.90
43089;DHT22;28709;52.030;5.652;2023-04-03T04:19:41;1.50;99.90
43089;DHT22;28709;52.030;5.652;2023-04-03T04:22:07;1.50;99.90
43089;DHT22;28709;52.030;5.652;2023-04-03T04:24:32;1.50;99.90
43089;DHT22;28709;52.030;5.652;2023-04-03T04:26:58;1.40;99.90
43089;DHT22;28709;52.030;5.652;2023-04-03T04:29:24;1.40;99.90
43089;DHT22;28709;52.030;5.652;2023-04-03T04:31:49;1.40;99.90
43089;DHT22;28709;52.030;5.652;2023-04-03T04:34:15;1.40;99.90
43089;DHT22;28709;52.030;5.652;2023-04-03T04:36:41;1.40;99.90
43089;DHT22;28709;52.030;5.652;2023-04-03T04:39:07;1.30;99.90
43089;DHT22;28709;52.030;5.652;2023-04-03T04:41:33;1.30;99.90
43089;DHT22;28709;52.030;5.652;2023-04-03T04:43:59;1.30;99.90
43089;DHT22;28709;52.030;5.652;2023-04-03T04:46:26;1.30;99.90
43089;DHT22;28709;52.030;5.652;2023-04-03T04:48:52;1.30;99.90
43089;DHT22;28709;52.030;5.652;2023-04-03T04:51:17;1.30;99.90
43089;DHT22;28709;52.030;5.652;2023-04-03T04:53:43;1.30;99.90
43089;DHT22;28709;52.030;5.652;2023-04-03T04:56:09;1.20;99.90
43089;DHT22;28709;52.030;5.652;2023-04-03T04:58:35;1.20;99.90
43089;DHT22;28709;52.030;5.652;2023-04-03T05:01:02;1.20;99.90
43089;DHT22;28709;52.030;5.652;2023-04-03T05:03:28;1.20;99.90
43089;DHT22;28709;52.030;5.652;2023-04-03T05:05:54;1.20;99.90
43089;DHT22;28709;52.030;5.652;2023-04-03T05:08:20;1.20;99.90
43089;DHT22;28709;52.030;5.652;2023-04-03T05:10:46;1.20;99.90
43089;DHT22;28709;52.030;5.652;2023-04-03T05:13:12;1.20;99.90
43089;DHT22;28709;52.030;5.652;2023-04-03T05:15:38;1.20;99.90
43089;DHT22;28709;52.030;5.652;2023-04-03T05:18:03;1.20;99.90
43089;DHT22;28709;52.030;5.652;2023-04-03T05:20:30;1.20;99.90
43089;DHT22;28709;52.030;5.652;2023-04-03T05:22:56;1.20;99.90
43089;DHT22;28709;52.030;5.652;2023-04-03T05:25:22;1.20;99.90
43089;DHT22;28709;52.030;5.652;2023-04-03T05:27:48;1.20;99.90
43089;DHT22;28709;52.030;5.652;2023-04-03T05:30:14;1.20;99.90
43089;DHT22;28709;52.030;5.652;2023-04-03T05:32:40;1.20;99.90
43089;DHT22;28709;52.030;5.652;2023-04-03T05:35:06;1.20;99.90
43089;DHT22;28709;52.030;5.652;2023-04-03T05:37:33;1.10;99.90
43089;DHT22;28709;52.030;5.652;2023-04-03T05:39:59;1.20;99.90
43089;DHT22;28709;52.030;5.652;2023-04-03T05:42:24;1.10;99.90
43089;DHT22;28709;52.030;5.652;2023-04-03T05:44:50;1.10;99.90
43089;DHT22;28709;52.030;5.652;2023-04-03T05:47:17;1.20;99.90
43089;DHT22;28709;52.030;5.652;2023-04-03T05:49:42;1.20;99.90
43089;DHT22;28709;52.030;5.652;2023-04-03T05:52:21;1.20;99.90
43089;DHT22;28709;52.030;5.652;2023-04-03T05:54:48;1.20;99.90
43089;DHT22;28709;52.030;5.652;2023-04-03T05:57:15;1.30;99.90
43089;DHT22;28709;52.030;5.652;2023-04-03T05:59:45;1.30;99.90
43089;DHT22;28709;52.030;5.652;2023-04-03T06:02:13;1.30;99.90
43089;DHT22;28709;52.030;5.652;2023-04-03T06:04:39;1.30;99.90
43089;DHT22;28709;52.030;5.652;2023-04-03T06:07:04;1.40;99.90
43089;DHT22;28709;52.030;5.652;2023-04-03T06:09:30;1.40;99.90
43089;DHT22;28709;52.030;5.652;2023-04-03T06:11:56;1.40;99.90
43089;DHT22;28709;52.030;5.652;2023-04-03T06:14:25;1.40;99.90
43089;DHT22;28709;52.030;5.652;2023-04-03T06:16:51;1.50;99.90
43089;DHT22;28709;52.030;5.652;2023-04-03T06:19:17;1.60;99.90
43089;DHT22;28709;52.030;5.652;2023-04-03T06:21:43;1.60;99.90
43089;DHT22;28709;52.030;5.652;2023-04-03T06:24:12;1.70;99.90
43089;DHT22;28709;52.030;5.652;2023-04-03T06:26:39;1.80;99.90
43089;DHT22;28709;52.030;5.652;2023-04-03T06:29:04;2.10;99.90
43089;DHT22;28709;52.030;5.652;2023-04-03T06:31:30;2.40;99.90
43089;DHT22;28709;52.030;5.652;2023-04-03T06:33:55;2.80;99.90
43089;DHT22;28709;52.030;5.652;2023-04-03T06:36:22;3.20;99.90
43089;DHT22;28709;52.030;5.652;2023-04-03T06:38:48;3.70;99.90
43089;DHT22;28709;52.030;5.652;2023-04-03T06:41:14;4.10;99.90
43089;DHT22;28709;52.030;5.652;2023-04-03T06:43:40;4.40;99.90
43089;DHT22;28709;52.030;5.652;2023-04-03T06:46:06;4.70;99.90
43089;DHT22;28709;52.030;5.652;2023-04-03T06:48:31;4.90;99.90
43089;DHT22;28709;52.030;5.652;2023-04-03T06:50:57;5.20;99.90
43089;DHT22;28709;52.030;5.652;2023-04-03T06:53:23;5.60;99.90
43089;DHT22;28709;52.030;5.652;2023-04-03T06:55:49;5.70;99.90
43089;DHT22;28709;52.030;5.652;2023-04-03T06:58:15;6.10;99.90
43089;DHT22;28709;52.030;5.652;2023-04-03T07:00:43;6.30;99.90
43089;DHT22;28709;52.030;5.652;2023-04-03T07:03:08;6.30;99.90
43089;DHT22;28709;52.030;5.652;2023-04-03T07:05:34;6.50;99.90
43089;DHT22;28709;52.030;5.652;2023-04-03T07:08:00;6.90;99.90
43089;DHT22;28709;52.030;5.652;2023-04-03T07:10:26;7.30;99.90
43089;DHT22;28709;52.030;5.652;2023-04-03T07:12:52;7.40;99.90
43089;DHT22;28709;52.030;5.652;2023-04-03T07:15:18;7.30;99.90
43089;DHT22;28709;52.030;5.652;2023-04-03T07:17:43;7.40;99.90
43089;DHT22;28709;52.030;5.652;2023-04-03T07:20:09;7.40;99.90
43089;DHT22;28709;52.030;5.652;2023-04-03T07:22:36;7.40;99.90
43089;DHT22;28709;52.030;5.652;2023-04-03T07:25:01;7.60;99.90
43089;DHT22;28709;52.030;5.652;2023-04-03T07:27:27;7.90;99.90
43089;DHT22;28709;52.030;5.652;2023-04-03T07:29:53;8.00;99.90
43089;DHT22;28709;52.030;5.652;2023-04-03T07:32:21;7.90;99.90
43089;DHT22;28709;52.030;5.652;2023-04-03T07:34:46;7.90;99.90
43089;DHT22;28709;52.030;5.652;2023-04-03T07:37:12;7.90;99.90
43089;DHT22;28709;52.030;5.652;2023-04-03T07:39:38;8.00;99.90
43089;DHT22;28709;52.030;5.652;2023-04-03T07:42:03;8.30;99.90
43089;DHT22;28709;52.030;5.652;2023-04-03T07:44:29;8.50;99.90
43089;DHT22;28709;52.030;5.652;2023-04-03T07:46:56;8.60;99.90
43089;DHT22;28709;52.030;5.652;2023-04-03T07:49:22;8.60;99.90
43089;DHT22;28709;52.030;5.652;2023-04-03T07:51:51;8.60;99.90
43089;DHT22;28709;52.030;5.652;2023-04-03T07:54:18;8.60;99.90
43089;DHT22;28709;52.030;5.652;2023-04-03T07:56:44;8.30;99.90
43089;DHT22;28709;52.030;5.652;2023-04-03T07:59:10;8.40;99.90
43089;DHT22;28709;52.030;5.652;2023-04-03T08:01:36;8.60;99.90
43089;DHT22;28709;52.030;5.652;2023-04-03T08:04:02;9.00;99.90
43089;DHT22;28709;52.030;5.652;2023-04-03T08:06:28;9.50;99.90
43089;DHT22;28709;52.030;5.652;2023-04-03T08:08:55;10.20;99.90
43089;DHT22;28709;52.030;5.652;2023-04-03T08:11:21;10.50;98.50
43089;DHT22;28709;52.030;5.652;2023-04-03T08:13:47;10.10;97.20
43089;DHT22;28709;52.030;5.652;2023-04-03T08:16:17;9.70;95.70
43089;DHT22;28709;52.030;5.652;2023-04-03T08:18:43;9.30;96.00
43089;DHT22;28709;52.030;5.652;2023-04-03T08:21:10;9.40;95.20
43089;DHT22;28709;52.030;5.652;2023-04-03T08:23:37;9.60;93.30
43089;DHT22;28709;52.030;5.652;2023-04-03T08:26:11;9.70;93.00
43089;DHT22;28709;52.030;5.652;2023-04-03T08:28:38;9.70;93.00
43089;DHT22;28709;52.030;5.652;2023-04-03T08:31:06;9.80;92.70
43089;DHT22;28709;52.030;5.652;2023-04-03T08:33:33;10.10;93.50
43089;DHT22;28709;52.030;5.652;2023-04-03T08:36:02;10.60;92.40
43089;DHT22;28709;52.030;5.652;2023-04-03T08:38:28;10.70;89.70
43089;DHT22;28709;52.030;5.652;2023-04-03T08:44:11;10.50;83.00
43089;DHT22;28709;52.030;5.652;2023-04-03T08:47:02;10.30;83.90
43089;DHT22;28709;52.030;5.652;2023-04-03T08:49:42;10.40;83.10
43089;DHT22;28709;52.030;5.652;2023-04-03T08:52:16;10.40;80.80
43089;DHT22;28709;52.030;5.652;2023-04-03T08:54:49;10.10;79.20
43089;DHT22;28709;52.030;5.652;2023-04-03T08:57:20;10.10;79.70
43089;DHT22;28709;52.030;5.652;2023-04-03T08:59:50;10.40;79.80
43089;DHT22;28709;52.030;5.652;2023-04-03T09:02:35;10.70;74.30
43089;DHT22;28709;52.030;5.652;2023-04-03T09:05:15;10.60;71.00
43089;DHT22;28709;52.030;5.652;2023-04-03T09:10:41;10.20;66.00
43089;DHT22;28709;52.030;5.652;2023-04-03T09:16:02;10.00;67.60
43089;DHT22;28709;52.030;5.652;2023-04-03T09:18:42;10.10;64.10
43089;DHT22;28709;52.030;5.652;2023-04-03T09:21:25;10.00;62.80
43089;DHT22;28709;52.030;5.652;2023-04-03T09:23:59;9.90;62.80
43089;DHT22;28709;52.030;5.652;2023-04-03T09:26:33;10.00;63.40
43089;DHT22;28709;52.030;5.652;2023-04-03T09:29:05;10.20;61.30
43089;DHT22;28709;52.030;5.652;2023-04-03T09:31:38;10.50;61.00
43089;DHT22;28709;52.030;5.652;2023-04-03T09:36:54;10.70;59.90
43089;DHT22;28709;52.030;5.652;2023-04-03T09:39:27;11.10;59.50
43089;DHT22;28709;52.030;5.652;2023-04-03T09:42:04;11.30;57.70
43089;DHT22;28709;52.030;5.652;2023-04-03T09:44:36;11.40;55.40
43089;DHT22;28709;52.030;5.652;2023-04-03T09:47:25;11.10;53.20
43089;DHT22;28709;52.030;5.652;2023-04-03T09:49:56;10.80;55.50
43089;DHT22;28709;52.030;5.652;2023-04-03T09:52:34;11.00;54.90
43089;DHT22;28709;52.030;5.652;2023-04-03T09:55:07;10.90;52.90
43089;DHT22;28709;52.030;5.652;2023-04-03T09:57:33;10.60;52.60
43089;DHT22;28709;52.030;5.652;2023-04-03T10:00:01;10.60;53.30
43089;DHT22;28709;52.030;5.652;2023-04-03T10:02:40;10.70;51.40
43089;DHT22;28709;52.030;5.652;2023-04-03T10:05:27;11.00;53.20
43089;DHT22;28709;52.030;5.652;2023-04-03T10:10:46;11.60;52.10
43089;DHT22;28709;52.030;5.652;2023-04-03T10:13:13;11.70;52.70
43089;DHT22;28709;52.030;5.652;2023-04-03T10:15:45;12.20;52.40
43089;DHT22;28709;52.030;5.652;2023-04-03T10:20:48;12.10;50.30
43089;DHT22;28709;52.030;5.652;2023-04-03T10:23:29;11.80;50.90
43089;DHT22;28709;52.030;5.652;2023-04-03T10:31:29;11.50;49.70
43089;DHT22;28709;52.030;5.652;2023-04-03T10:36:56;11.70;50.30
43089;DHT22;28709;52.030;5.652;2023-04-03T10:39:45;12.10;51.70
43089;DHT22;28709;52.030;5.652;2023-04-03T10:44:54;12.70;50.20
43089;DHT22;28709;52.030;5.652;2023-04-03T10:47:45;12.50;50.70
43089;DHT22;28709;52.030;5.652;2023-04-03T10:58:56;11.80;52.60
43089;DHT22;28709;52.030;5.652;2023-04-03T11:01:37;12.00;53.00
43089;DHT22;28709;52.030;5.652;2023-04-03T11:04:05;12.20;52.70
43089;DHT22;28709;52.030;5.652;2023-04-03T11:07:01;11.80;53.00
43089;DHT22;28709;52.030;5.652;2023-04-03T11:09:32;11.60;54.10
43089;DHT22;28709;52.030;5.652;2023-04-03T11:12:08;11.80;53.50
43089;DHT22;28709;52.030;5.652;2023-04-03T11:14:36;12.00;54.00
43089;DHT22;28709;52.030;5.652;2023-04-03T11:17:14;12.10;53.00
43089;DHT22;28709;52.030;5.652;2023-04-03T11:22:29;12.20;52.50
43089;DHT22;28709;52.030;5.652;2023-04-03T11:25:15;12.20;52.90
43089;DHT22;28709;52.030;5.652;2023-04-03T11:28:24;12.60;53.20
43089;DHT22;28709;52.030;5.652;2023-04-03T11:35:57;12.40;52.90
43089;DHT22;28709;52.030;5.652;2023-04-03T11:38:30;12.40;52.70
43089;DHT22;28709;52.030;5.652;2023-04-03T11:41:00;12.60;52.70
43089;DHT22;28709;52.030;5.652;2023-04-03T11:43:30;12.80;51.90
43089;DHT22;28709;52.030;5.652;2023-04-03T11:46:01;12.80;51.90
43089;DHT22;28709;52.030;5.652;2023-04-03T11:51:02;13.50;52.50
43089;DHT22;28709;52.030;5.652;2023-04-03T11:56:02;13.70;50.80
43089;DHT22;28709;52.030;5.652;2023-04-03T11:58:33;13.90;49.90
43089;DHT22;28709;52.030;5.652;2023-04-03T12:01:05;14.00;50.30
43089;DHT22;28709;52.030;5.652;2023-04-03T12:03:34;13.60;50.30
43089;DHT22;28709;52.030;5.652;2023-04-03T12:08:43;13.00;52.20
43089;DHT22;28709;52.030;5.652;2023-04-03T12:35:35;13.90;50.40
43089;DHT22;28709;52.030;5.652;2023-04-03T12:38:37;14.10;49.90
43089;DHT22;28709;52.030;5.652;2023-04-03T12:43:57;14.00;49.50
43089;DHT22;28709;52.030;5.652;2023-04-03T12:46:34;13.70;50.10
43089;DHT22;28709;52.030;5.652;2023-04-03T12:51:59;13.80;50.50
43089;DHT22;28709;52.030;5.652;2023-04-03T12:54:38;14.10;49.60
43089;DHT22;28709;52.030;5.652;2023-04-03T12:57:20;14.00;49.70
43089;DHT22;28709;52.030;5.652;2023-04-03T12:59:47;13.80;50.60
43089;DHT22;28709;52.030;5.652;2023-04-03T13:02:25;13.70;50.70
43089;DHT22;28709;52.030;5.652;2023-04-03T13:04:53;13.80;50.70
43089;DHT22;28709;52.030;5.652;2023-04-03T13:07:32;13.80;51.00
43089;DHT22;28709;52.030;5.652;2023-04-03T13:10:15;14.20;50.60
43089;DHT22;28709;52.030;5.652;2023-04-03T13:12:51;14.00;50.90
43089;DHT22;28709;52.030;5.652;2023-04-03T13:15:27;13.70;51.50
43089;DHT22;28709;52.030;5.652;2023-04-03T13:17:54;13.60;51.40
43089;DHT22;28709;52.030;5.652;2023-04-03T13:20:29;13.70;50.20
43089;DHT22;28709;52.030;5.652;2023-04-03T13:23:07;13.80;50.00
43089;DHT22;28709;52.030;5.652;2023-04-03T13:25:37;13.80;50.70
43089;DHT22;28709;52.030;5.652;2023-04-03T13:28:07;13.70;50.70
43089;DHT22;28709;52.030;5.652;2023-04-03T13:30:38;13.30;51.40
43089;DHT22;28709;52.030;5.652;2023-04-03T13:33:17;13.00;51.70
43089;DHT22;28709;52.030;5.652;2023-04-03T13:35:44;12.50;52.90
43089;DHT22;28709;52.030;5.652;2023-04-03T13:40:55;11.40;54.90
43089;DHT22;28709;52.030;5.652;2023-04-03T13:43:25;11.30;55.30
43089;DHT22;28709;52.030;5.652;2023-04-03T13:48:47;11.10;55.20
43089;DHT22;28709;52.030;5.652;2023-04-03T13:54:13;10.90;55.90
43089;DHT22;28709;52.030;5.652;2023-04-03T13:56:41;10.80;56.10
43089;DHT22;28709;52.030;5.652;2023-04-03T14:04:29;10.30;56.60
43089;DHT22;28709;52.030;5.652;2023-04-03T14:06:55;10.30;57.10
43089;DHT22;28709;52.030;5.652;2023-04-03T14:09:24;10.20;56.80
43089;DHT22;28709;52.030;5.652;2023-04-03T14:11:55;10.20;57.40
43089;DHT22;28709;52.030;5.652;2023-04-03T14:14:27;10.20;57.70
43089;DHT22;28709;52.030;5.652;2023-04-03T14:16:58;10.10;57.90
43089;DHT22;28709;52.030;5.652;2023-04-03T14:19:33;10.10;58.00
43089;DHT22;28709;52.030;5.652;2023-04-03T14:22:03;10.00;58.20
43089;DHT22;28709;52.030;5.652;2023-04-03T14:24:31;10.00;58.40
43089;DHT22;28709;52.030;5.652;2023-04-03T14:26:57;9.90;58.50
43089;DHT22;28709;52.030;5.652;2023-04-03T14:29:24;9.90;58.50
43089;DHT22;28709;52.030;5.652;2023-04-03T14:31:50;9.80;58.60
43089;DHT22;28709;52.030;5.652;2023-04-03T14:34:17;9.90;59.00
43089;DHT22;28709;52.030;5.652;2023-04-03T14:36:44;9.80;59.80
43089;DHT22;28709;52.030;5.652;2023-04-03T14:39:17;9.80;59.90
43089;DHT22;28709;52.030;5.652;2023-04-03T14:41:45;9.90;60.20
43089;DHT22;28709;52.030;5.652;2023-04-03T14:44:11;9.80;60.10
43089;DHT22;28709;52.030;5.652;2023-04-03T14:46:40;9.80;60.10
43089;DHT22;28709;52.030;5.652;2023-04-03T14:49:34;9.70;59.80
43089;DHT22;28709;52.030;5.652;2023-04-03T14:51:59;9.70;60.10
43089;DHT22;28709;52.030;5.652;2023-04-03T14:54:25;9.60;59.90
43089;DHT22;28709;52.030;5.652;2023-04-03T14:56:53;9.50;60.50
43089;DHT22;28709;52.030;5.652;2023-04-03T14:59:21;9.60;60.60
43089;DHT22;28709;52.030;5.652;2023-04-03T15:01:47;9.60;60.80
43089;DHT22;28709;52.030;5.652;2023-04-03T15:04:19;9.50;60.70
43089;DHT22;28709;52.030;5.652;2023-04-03T15:06:45;9.60;60.80
43089;DHT22;28709;52.030;5.652;2023-04-03T15:09:23;9.50;61.00
43089;DHT22;28709;52.030;5.652;2023-04-03T15:11:50;9.60;61.40
43089;DHT22;28709;52.030;5.652;2023-04-03T15:14:17;9.70;61.60
43089;DHT22;28709;52.030;5.652;2023-04-03T15:16:44;9.70;60.60
43089;DHT22;28709;52.030;5.652;2023-04-03T15:19:10;9.60;61.10
43089;DHT22;28709;52.030;5.652;2023-04-03T15:21:36;9.60;61.30
43089;DHT22;28709;52.030;5.652;2023-04-03T15:24:02;9.60;61.20
43089;DHT22;28709;52.030;5.652;2023-04-03T15:26:29;9.60;61.30
43089;DHT22;28709;52.030;5.652;2023-04-03T15:28:55;9.50;61.20
43089;DHT22;28709;52.030;5.652;2023-04-03T15:31:21;9.50;61.90
43089;DHT22;28709;52.030;5.652;2023-04-03T15:33:46;9.50;62.30
43089;DHT22;28709;52.030;5.652;2023-04-03T15:36:12;9.50;62.80
43089;DHT22;28709;52.030;5.652;2023-04-03T15:38:38;9.50;63.50
43089;DHT22;28709;52.030;5.652;2023-04-03T15:41:04;9.40;63.20
43089;DHT22;28709;52.030;5.652;2023-04-03T15:43:30;9.40;63.30
43089;DHT22;28709;52.030;5.652;2023-04-03T15:45:57;9.40;63.50
43089;DHT22;28709;52.030;5.652;2023-04-03T15:48:26;9.30;64.00
43089;DHT22;28709;52.030;5.652;2023-04-03T15:50:52;9.30;63.90
43089;DHT22;28709;52.030;5.652;2023-04-03T15:53:18;9.20;64.30
43089;DHT22;28709;52.030;5.652;2023-04-03T15:55:43;9.20;65.00
43089;DHT22;28709;52.030;5.652;2023-04-03T15:58:09;9.20;66.00
43089;DHT22;28709;52.030;5.652;2023-04-03T16:00:36;9.20;65.30
43089;DHT22;28709;52.030;5.652;2023-04-03T16:03:10;9.20;65.60
43089;DHT22;28709;52.030;5.652;2023-04-03T16:05:37;9.20;65.90
43089;DHT22;28709;52.030;5.652;2023-04-03T16:08:05;9.20;65.70
43089;DHT22;28709;52.030;5.652;2023-04-03T16:10:33;9.20;66.00
43089;DHT22;28709;52.030;5.652;2023-04-03T16:12:59;9.30;65.50
43089;DHT22;28709;52.030;5.652;2023-04-03T16:15:24;9.20;65.60
43089;DHT22;28709;52.030;5.652;2023-04-03T16:17:52;9.10;65.80
43089;DHT22;28709;52.030;5.652;2023-04-03T16:20:18;9.10;66.00
43089;DHT22;28709;52.030;5.652;2023-04-03T16:22:45;9.10;66.40
43089;DHT22;28709;52.030;5.652;2023-04-03T16:25:11;9.10;66.20
43089;DHT22;28709;52.030;5.652;2023-04-03T16:27:38;9.20;66.00
43089;DHT22;28709;52.030;5.652;2023-04-03T16:30:05;9.20;65.70
43089;DHT22;28709;52.030;5.652;2023-04-03T16:32:32;9.10;65.90
43089;DHT22;28709;52.030;5.652;2023-04-03T16:34:58;9.10;66.20
43089;DHT22;28709;52.030;5.652;2023-04-03T16:37:24;9.00;66.50
43089;DHT22;28709;52.030;5.652;2023-04-03T16:39:50;9.00;66.70
43089;DHT22;28709;52.030;5.652;2023-04-03T16:42:16;8.90;67.70
43089;DHT22;28709;52.030;5.652;2023-04-03T16:44:42;8.90;66.90
43089;DHT22;28709;52.030;5.652;2023-04-03T16:47:08;8.90;67.10
43089;DHT22;28709;52.030;5.652;2023-04-03T16:49:34;8.90;67.50
43089;DHT22;28709;52.030;5.652;2023-04-03T16:52:01;8.90;68.00
43089;DHT22;28709;52.030;5.652;2023-04-03T16:54:28;8.80;67.80
43089;DHT22;28709;52.030;5.652;2023-04-03T16:56:54;8.80;68.10
43089;DHT22;28709;52.030;5.652;2023-04-03T16:59:20;8.80;67.80
43089;DHT22;28709;52.030;5.652;2023-04-03T17:01:45;8.70;68.00
43089;DHT22;28709;52.030;5.652;2023-04-03T17:04:11;8.80;68.20
43089;DHT22;28709;52.030;5.652;2023-04-03T17:06:38;8.70;68.00
43089;DHT22;28709;52.030;5.652;2023-04-03T17:09:04;8.70;68.00
43089;DHT22;28709;52.030;5.652;2023-04-03T17:11:31;8.60;68.00
43089;DHT22;28709;52.030;5.652;2023-04-03T17:13:57;8.60;68.10
43089;DHT22;28709;52.030;5.652;2023-04-03T17:16:24;8.50;68.10
43089;DHT22;28709;52.030;5.652;2023-04-03T17:18:50;8.50;68.00
43089;DHT22;28709;52.030;5.652;2023-04-03T17:21:16;8.40;68.00
43089;DHT22;28709;52.030;5.652;2023-04-03T17:23:44;8.30;68.20
43089;DHT22;28709;52.030;5.652;2023-04-03T17:26:11;8.30;68.60
43089;DHT22;28709;52.030;5.652;2023-04-03T17:28:37;8.30;68.60
43089;DHT22;28709;52.030;5.652;2023-04-03T17:31:05;8.30;68.80
43089;DHT22;28709;52.030;5.652;2023-04-03T17:33:32;8.30;69.00